sensor_id;sensor_type;location;lat;lon;timestamp;temperature;humidity
30459;DHT22;74163;50.912;6.918;2024-02-26T00:00:05;7.50;95.80
30459;DHT22;74163;50.912;6.918;2024-02-26T00:00:37;7.60;95.90
30459;DHT22;74163;50.912;6.918;2024-02-26T00:01:09;7.60;96.00
30459;DHT22;74163;50.912;6.918;2024-02-26T00:01:41;7.50;96.10
30459;DHT22;74163;50.912;6.918;2024-02-26T00:02:13;7.50;96.50
30459;DHT22;74163;50.912;6.918;2024-02-26T00:02:44;7.50;96.80
30459;DHT22;74163;50.912;6.918;2024-02-26T00:03:16;7.50;96.90
30459;DHT22;74163;50.912;6.918;2024-02-26T00:03:48;7.50;97.10
30459;DHT22;74163;50.912;6.918;2024-02-26T00:04:22;7.40;97.20
30459;DHT22;74163;50.912;6.918;2024-02-26T00:04:54;7.50;97.40
30459;DHT22;74163;50.912;6.918;2024-02-26T00:05:25;7.50;97.60
30459;DHT22;74163;50.912;6.918;2024-02-26T00:05:57;7.40;97.60
30459;DHT22;74163;50.912;6.918;2024-02-26T00:06:29;7.50;97.60
30459;DHT22;74163;50.912;6.918;2024-02-26T00:07:01;7.40;97.70
30459;DHT22;74163;50.912;6.918;2024-02-26T00:07:34;7.40;97.90
30459;DHT22;74163;50.912;6.918;2024-02-26T00:08:06;7.40;98.00
30459;DHT22;74163;50.912;6.918;2024-02-26T00:08:38;7.40;98.20
30459;DHT22;74163;50.912;6.918;2024-02-26T00:09:10;7.40;98.30
30459;DHT22;74163;50.912;6.918;2024-02-26T00:09:42;7.50;98.50
30459;DHT22;74163;50.912;6.918;2024-02-26T00:10:14;7.40;98.60
30459;DHT22;74163;50.912;6.918;2024-02-26T00:10:46;7.40;98.80
30459;DHT22;74163;50.912;6.918;2024-02-26T00:11:18;7.40;98.70
30459;DHT22;74163;50.912;6.918;2024-02-26T00:11:50;7.40;98.70
30459;DHT22;74163;50.912;6.918;2024-02-26T00:12:23;7.40;98.90
30459;DHT22;74163;50.912;6.918;2024-02-26T00:12:55;7.40;99.10
30459;DHT22;74163;50.912;6.918;2024-02-26T00:13:27;7.40;99.30
30459;DHT22;74163;50.912;6.918;2024-02-26T00:13:59;7.40;99.40
30459;DHT22;74163;50.912;6.918;2024-02-26T00:14:31;7.40;99.60
30459;DHT22;74163;50.912;6.918;2024-02-26T00:15:04;7.40;99.80
30459;DHT22;74163;50.912;6.918;2024-02-26T00:15:36;7.40;99.80
30459;DHT22;74163;50.912;6.918;2024-02-26T00:16:08;7.40;99.80
30459;DHT22;74163;50.912;6.918;2024-02-26T00:16:40;7.40;99.80
30459;DHT22;74163;50.912;6.918;2024-02-26T00:17:13;7.40;99.90
30459;DHT22;74163;50.912;6.918;2024-02-26T00:17:45;7.40;99.90
30459;DHT22;74163;50.912;6.918;2024-02-26T00:18:17;7.40;99.90
30459;DHT22;74163;50.912;6.918;2024-02-26T00:18:49;7.40;99.90
30459;DHT22;74163;50.912;6.918;2024-02-26T00:19:21;7.40;99.90
30459;DHT22;74163;50.912;6.918;2024-02-26T00:19:53;7.40;99.90
30459;DHT22;74163;50.912;6.918;2024-02-26T00:20:25;7.30;99.90
30459;DHT22;74163;50.912;6.918;2024-02-26T00:20:57;7.40;99.90
30459;DHT22;74163;50.912;6.918;2024-02-26T00:21:29;7.40;99.90
30459;DHT22;74163;50.912;6.918;2024-02-26T00:22:01;7.40;99.90
30459;DHT22;74163;50.912;6.918;2024-02-26T00:22:33;7.40;99.90
30459;DHT22;74163;50.912;6.918;2024-02-26T00:23:04;7.40;99.90
30459;DHT22;74163;50.912;6.918;2024-02-26T00:23:37;7.50;99.90
30459;DHT22;74163;50.912;6.918;2024-02-26T00:24:08;7.50;99.90
30459;DHT22;74163;50.912;6.918;2024-02-26T00:24:41;7.50;99.90
30459;DHT22;74163;50.912;6.918;2024-02-26T00:25:12;7.50;99.90
30459;DHT22;74163;50.912;6.918;2024-02-26T00:25:44;7.40;99.90
30459;DHT22;74163;50.912;6.918;2024-02-26T00:26:16;7.50;99.90
30459;DHT22;74163;50.912;6.918;2024-02-26T00:26:48;7.40;99.90
30459;DHT22;74163;50.912;6.918;2024-02-26T00:27:20;7.40;99.90
30459;DHT22;74163;50.912;6.918;2024-02-26T00:27:53;7.40;99.90
30459;DHT22;74163;50.912;6.918;2024-02-26T00:28:25;7.40;99.90
30459;DHT22;74163;50.912;6.918;2024-02-26T00:28:57;7.40;99.90
30459;DHT22;74163;50.912;6.918;2024-02-26T00:29:28;7.50;99.90
30459;DHT22;74163;50.912;6.918;2024-02-26T00:30:00;7.40;99.90
30459;DHT22;74163;50.912;6.918;2024-02-26T00:30:32;7.40;99.90
30459;DHT22;74163;50.912;6.918;2024-02-26T00:31:04;7.40;99.90
30459;DHT22;74163;50.912;6.918;2024-02-26T00:31:36;7.40;99.90
30459;DHT22;74163;50.912;6.918;2024-02-26T00:32:08;7.40;99.90
30459;DHT22;74163;50.912;6.918;2024-02-26T00:32:41;7.40;99.90
30459;DHT22;74163;50.912;6.918;2024-02-26T00:33:14;7.40;99.90
30459;DHT22;74163;50.912;6.918;2024-02-26T00:33:46;7.40;99.90
30459;DHT22;74163;50.912;6.918;2024-02-26T00:34:18;7.40;99.90
30459;DHT22;74163;50.912;6.918;2024-02-26T00:34:50;7.40;99.90
30459;DHT22;74163;50.912;6.918;2024-02-26T00:35:22;7.40;99.90
30459;DHT22;74163;50.912;6.918;2024-02-26T00:35:54;7.40;99.90
30459;DHT22;74163;50.912;6.918;2024-02-26T00:36:26;7.50;99.90
30459;DHT22;74163;50.912;6.918;2024-02-26T00:36:58;7.50;99.90
30459;DHT22;74163;50.912;6.918;2024-02-26T00:37:30;7.50;99.90
30459;DHT22;74163;50.912;6.918;2024-02-26T00:38:02;7.40;99.90
30459;DHT22;74163;50.912;6.918;2024-02-26T00:38:34;7.50;99.90
30459;DHT22;74163;50.912;6.918;2024-02-26T00:39:05;7.40;99.90
30459;DHT22;74163;50.912;6.918;2024-02-26T00:39:37;7.40;99.90
30459;DHT22;74163;50.912;6.918;2024-02-26T00:40:10;7.50;99.90
30459;DHT22;74163;50.912;6.918;2024-02-26T00:40:42;7.50;99.90
30459;DHT22;74163;50.912;6.918;2024-02-26T00:41:14;7.50;99.90
30459;DHT22;74163;50.912;6.918;2024-02-26T00:41:45;7.50;99.90
30459;DHT22;74163;50.912;6.918;2024-02-26T00:42:17;7.50;99.90
30459;DHT22;74163;50.912;6.918;2024-02-26T00:42:49;7.50;99.90
30459;DHT22;74163;50.912;6.918;2024-02-26T00:43:22;7.40;99.90
30459;DHT22;74163;50.912;6.918;2024-02-26T00:43:54;7.50;99.90
30459;DHT22;74163;50.912;6.918;2024-02-26T00:44:26;7.50;99.90
30459;DHT22;74163;50.912;6.918;2024-02-26T00:44:58;7.50;99.90
30459;DHT22;74163;50.912;6.918;2024-02-26T00:45:30;7.60;99.90
30459;DHT22;74163;50.912;6.918;2024-02-26T00:46:02;7.40;99.90
30459;DHT22;74163;50.912;6.918;2024-02-26T00:46:34;7.40;99.90
30459;DHT22;74163;50.912;6.918;2024-02-26T00:47:06;7.40;99.90
30459;DHT22;74163;50.912;6.918;2024-02-26T00:47:37;7.40;99.90
30459;DHT22;74163;50.912;6.918;2024-02-26T00:48:09;7.40;99.90
30459;DHT22;74163;50.912;6.918;2024-02-26T00:48:41;7.40;99.90
30459;DHT22;74163;50.912;6.918;2024-02-26T00:49:13;7.40;99.90
30459;DHT22;74163;50.912;6.918;2024-02-26T00:49:46;7.40;99.90
30459;DHT22;74163;50.912;6.918;2024-02-26T00:50:17;7.40;99.90
30459;DHT22;74163;50.912;6.918;2024-02-26T00:50:49;7.40;99.90
30459;DHT22;74163;50.912;6.918;2024-02-26T00:51:21;7.40;99.90
30459;DHT22;74163;50.912;6.918;2024-02-26T00:51:56;7.40;99.90
30459;DHT22;74163;50.912;6.918;2024-02-26T00:52:28;7.30;99.90
30459;DHT22;74163;50.912;6.918;2024-02-26T00:53:00;7.30;99.90
30459;DHT22;74163;50.912;6.918;2024-02-26T00:53:32;7.40;99.90
30459;DHT22;74163;50.912;6.918;2024-02-26T00:54:04;7.30;99.90
30459;DHT22;74163;50.912;6.918;2024-02-26T00:54:36;7.30;99.90
30459;DHT22;74163;50.912;6.918;2024-02-26T00:55:08;7.30;99.90
30459;DHT22;74163;50.912;6.918;2024-02-26T00:55:39;7.30;99.90
30459;DHT22;74163;50.912;6.918;2024-02-26T00:56:11;7.30;99.90
30459;DHT22;74163;50.912;6.918;2024-02-26T00:56:43;7.30;99.90
30459;DHT22;74163;50.912;6.918;2024-02-26T00:57:15;7.30;99.90
30459;DHT22;74163;50.912;6.918;2024-02-26T00:57:47;7.30;99.90
30459;DHT22;74163;50.912;6.918;2024-02-26T00:58:19;7.30;99.90
30459;DHT22;74163;50.912;6.918;2024-02-26T00:58:52;7.30;99.90
30459;DHT22;74163;50.912;6.918;2024-02-26T00:59:24;7.30;99.90
30459;DHT22;74163;50.912;6.918;2024-02-26T00:59:56;7.30;99.90
30459;DHT22;74163;50.912;6.918;2024-02-26T01:00:28;7.20;99.90
30459;DHT22;74163;50.912;6.918;2024-02-26T01:01:00;7.20;99.90
30459;DHT22;74163;50.912;6.918;2024-02-26T01:01:32;7.30;99.90
30459;DHT22;74163;50.912;6.918;2024-02-26T01:02:04;7.30;99.90
30459;DHT22;74163;50.912;6.918;2024-02-26T01:02:36;7.30;99.90
30459;DHT22;74163;50.912;6.918;2024-02-26T01:03:08;7.20;99.90
30459;DHT22;74163;50.912;6.918;2024-02-26T01:03:40;7.30;99.90
30459;DHT22;74163;50.912;6.918;2024-02-26T01:04:12;7.30;99.90
30459;DHT22;74163;50.912;6.918;2024-02-26T01:04:44;7.30;99.90
30459;DHT22;74163;50.912;6.918;2024-02-26T01:05:16;7.30;99.90
30459;DHT22;74163;50.912;6.918;2024-02-26T01:05:48;7.20;99.90
30459;DHT22;74163;50.912;6.918;2024-02-26T01:06:20;7.30;99.90
30459;DHT22;74163;50.912;6.918;2024-02-26T01:06:52;7.20;99.90
30459;DHT22;74163;50.912;6.918;2024-02-26T01:07:24;7.30;99.90
30459;DHT22;74163;50.912;6.918;2024-02-26T01:07:56;7.30;99.90
30459;DHT22;74163;50.912;6.918;2024-02-26T01:08:28;7.20;99.90
30459;DHT22;74163;50.912;6.918;2024-02-26T01:09:00;7.20;99.90
30459;DHT22;74163;50.912;6.918;2024-02-26T01:09:32;7.20;99.90
30459;DHT22;74163;50.912;6.918;2024-02-26T01:10:04;7.20;99.90
30459;DHT22;74163;50.912;6.918;2024-02-26T01:10:36;7.10;99.90
30459;DHT22;74163;50.912;6.918;2024-02-26T01:11:08;7.10;99.90
30459;DHT22;74163;50.912;6.918;2024-02-26T01:11:40;7.10;99.90
30459;DHT22;74163;50.912;6.918;2024-02-26T01:12:12;7.10;99.90
30459;DHT22;74163;50.912;6.918;2024-02-26T01:12:43;7.10;99.90
30459;DHT22;74163;50.912;6.918;2024-02-26T01:13:15;7.10;99.90
30459;DHT22;74163;50.912;6.918;2024-02-26T01:13:47;7.10;99.90
30459;DHT22;74163;50.912;6.918;2024-02-26T01:14:21;7.10;99.90
30459;DHT22;74163;50.912;6.918;2024-02-26T01:14:52;7.10;99.90
30459;DHT22;74163;50.912;6.918;2024-02-26T01:15:24;7.10;99.90
30459;DHT22;74163;50.912;6.918;2024-02-26T01:15:56;7.10;99.90
30459;DHT22;74163;50.912;6.918;2024-02-26T01:16:28;7.10;99.90
30459;DHT22;74163;50.912;6.918;2024-02-26T01:17:00;7.10;99.90
30459;DHT22;74163;50.912;6.918;2024-02-26T01:17:32;7.10;99.90
30459;DHT22;74163;50.912;6.918;2024-02-26T01:18:04;7.10;99.90
30459;DHT22;74163;50.912;6.918;2024-02-26T01:18:36;7.10;99.90
30459;DHT22;74163;50.912;6.918;2024-02-26T01:19:08;7.10;99.90
30459;DHT22;74163;50.912;6.918;2024-02-26T01:19:40;7.10;99.90
30459;DHT22;74163;50.912;6.918;2024-02-26T01:20:12;7.10;99.90
30459;DHT22;74163;50.912;6.918;2024-02-26T01:20:44;7.10;99.90
30459;DHT22;74163;50.912;6.918;2024-02-26T01:21:16;7.10;99.90
30459;DHT22;74163;50.912;6.918;2024-02-26T01:21:48;7.10;99.90
30459;DHT22;74163;50.912;6.918;2024-02-26T01:22:20;7.10;99.90
30459;DHT22;74163;50.912;6.918;2024-02-26T01:22:52;7.10;99.90
30459;DHT22;74163;50.912;6.918;2024-02-26T01:23:24;7.10;99.90
30459;DHT22;74163;50.912;6.918;2024-02-26T01:23:55;7.10;99.90
30459;DHT22;74163;50.912;6.918;2024-02-26T01:24:27;7.10;99.90
30459;DHT22;74163;50.912;6.918;2024-02-26T01:24:59;7.10;99.90
30459;DHT22;74163;50.912;6.918;2024-02-26T01:25:31;7.10;99.90
30459;DHT22;74163;50.912;6.918;2024-02-26T01:26:03;7.10;99.90
30459;DHT22;74163;50.912;6.918;2024-02-26T01:26:35;7.00;99.90
30459;DHT22;74163;50.912;6.918;2024-02-26T01:27:06;7.10;99.90
30459;DHT22;74163;50.912;6.918;2024-02-26T01:27:39;7.10;99.90
30459;DHT22;74163;50.912;6.918;2024-02-26T01:28:11;7.10;99.90
30459;DHT22;74163;50.912;6.918;2024-02-26T01:28:43;7.00;99.90
30459;DHT22;74163;50.912;6.918;2024-02-26T01:29:15;7.00;99.90
30459;DHT22;74163;50.912;6.918;2024-02-26T01:29:48;7.00;99.90
30459;DHT22;74163;50.912;6.918;2024-02-26T01:30:20;7.00;99.90
30459;DHT22;74163;50.912;6.918;2024-02-26T01:30:52;7.10;99.90
30459;DHT22;74163;50.912;6.918;2024-02-26T01:31:23;7.00;99.90
30459;DHT22;74163;50.912;6.918;2024-02-26T01:31:55;7.00;99.90
30459;DHT22;74163;50.912;6.918;2024-02-26T01:32:27;7.00;99.90
30459;DHT22;74163;50.912;6.918;2024-02-26T01:32:59;7.00;99.90
30459;DHT22;74163;50.912;6.918;2024-02-26T01:33:31;7.00;99.90
30459;DHT22;74163;50.912;6.918;2024-02-26T01:34:03;7.00;99.90
30459;DHT22;74163;50.912;6.918;2024-02-26T01:34:36;7.00;99.90
30459;DHT22;74163;50.912;6.918;2024-02-26T01:35:08;7.10;99.90
30459;DHT22;74163;50.912;6.918;2024-02-26T01:35:40;7.00;99.90
30459;DHT22;74163;50.912;6.918;2024-02-26T01:36:12;7.00;99.90
30459;DHT22;74163;50.912;6.918;2024-02-26T01:36:44;7.00;99.90
30459;DHT22;74163;50.912;6.918;2024-02-26T01:37:16;7.00;99.90
30459;DHT22;74163;50.912;6.918;2024-02-26T01:37:48;6.90;99.90
30459;DHT22;74163;50.912;6.918;2024-02-26T01:38:20;7.00;99.90
30459;DHT22;74163;50.912;6.918;2024-02-26T01:38:52;7.00;99.90
30459;DHT22;74163;50.912;6.918;2024-02-26T01:39:23;6.90;99.90
30459;DHT22;74163;50.912;6.918;2024-02-26T01:39:55;6.90;99.90
30459;DHT22;74163;50.912;6.918;2024-02-26T01:40:27;6.90;99.90
30459;DHT22;74163;50.912;6.918;2024-02-26T01:40:59;7.00;99.90
30459;DHT22;74163;50.912;6.918;2024-02-26T01:41:31;6.90;99.90
30459;DHT22;74163;50.912;6.918;2024-02-26T01:42:03;6.90;99.90
30459;DHT22;74163;50.912;6.918;2024-02-26T01:42:38;6.90;99.90
30459;DHT22;74163;50.912;6.918;2024-02-26T01:43:10;6.90;99.90
30459;DHT22;74163;50.912;6.918;2024-02-26T01:43:41;6.90;99.90
30459;DHT22;74163;50.912;6.918;2024-02-26T01:44:13;6.90;99.90
30459;DHT22;74163;50.912;6.918;2024-02-26T01:44:45;6.90;99.90
30459;DHT22;74163;50.912;6.918;2024-02-26T01:45:18;6.90;99.90
30459;DHT22;74163;50.912;6.918;2024-02-26T01:45:50;6.90;99.90
30459;DHT22;74163;50.912;6.918;2024-02-26T01:46:22;6.90;99.90
30459;DHT22;74163;50.912;6.918;2024-02-26T01:46:54;6.90;99.90
30459;DHT22;74163;50.912;6.918;2024-02-26T01:47:27;6.90;99.90
30459;DHT22;74163;50.912;6.918;2024-02-26T01:48:00;6.90;99.90
30459;DHT22;74163;50.912;6.918;2024-02-26T01:48:33;6.90;99.90
30459;DHT22;74163;50.912;6.918;2024-02-26T01:49:05;6.90;99.90
30459;DHT22;74163;50.912;6.918;2024-02-26T01:49:38;6.90;99.90
30459;DHT22;74163;50.912;6.918;2024-02-26T01:50:11;6.90;99.90
30459;DHT22;74163;50.912;6.918;2024-02-26T01:50:43;6.90;99.90
30459;DHT22;74163;50.912;6.918;2024-02-26T01:51:15;6.90;99.90
30459;DHT22;74163;50.912;6.918;2024-02-26T01:51:48;7.00;99.90
30459;DHT22;74163;50.912;6.918;2024-02-26T01:52:21;6.90;99.90
30459;DHT22;74163;50.912;6.918;2024-02-26T01:52:53;7.00;99.90
30459;DHT22;74163;50.912;6.918;2024-02-26T01:53:25;7.00;99.90
30459;DHT22;74163;50.912;6.918;2024-02-26T01:53:57;6.90;99.90
30459;DHT22;74163;50.912;6.918;2024-02-26T01:54:30;6.90;99.90
30459;DHT22;74163;50.912;6.918;2024-02-26T01:55:03;6.90;99.90
30459;DHT22;74163;50.912;6.918;2024-02-26T01:55:35;6.90;99.90
30459;DHT22;74163;50.912;6.918;2024-02-26T01:56:11;6.90;99.90
30459;DHT22;74163;50.912;6.918;2024-02-26T01:56:43;6.90;99.90
30459;DHT22;74163;50.912;6.918;2024-02-26T01:57:16;7.00;99.90
30459;DHT22;74163;50.912;6.918;2024-02-26T01:57:49;6.90;99.90
30459;DHT22;74163;50.912;6.918;2024-02-26T01:58:21;6.90;99.90
30459;DHT22;74163;50.912;6.918;2024-02-26T01:58:53;6.90;99.90
30459;DHT22;74163;50.912;6.918;2024-02-26T01:59:25;6.90;99.90
30459;DHT22;74163;50.912;6.918;2024-02-26T01:59:57;6.90;99.90
30459;DHT22;74163;50.912;6.918;2024-02-26T02:00:30;6.90;99.90
30459;DHT22;74163;50.912;6.918;2024-02-26T02:01:03;6.90;99.90
30459;DHT22;74163;50.912;6.918;2024-02-26T02:01:36;6.90;99.90
30459;DHT22;74163;50.912;6.918;2024-02-26T02:02:10;6.90;99.90
30459;DHT22;74163;50.912;6.918;2024-02-26T02:02:42;7.00;99.90
30459;DHT22;74163;50.912;6.918;2024-02-26T02:03:14;6.90;99.90
30459;DHT22;74163;50.912;6.918;2024-02-26T02:03:47;6.90;99.90
30459;DHT22;74163;50.912;6.918;2024-02-26T02:04:19;7.00;99.90
30459;DHT22;74163;50.912;6.918;2024-02-26T02:04:51;7.00;99.90
30459;DHT22;74163;50.912;6.918;2024-02-26T02:05:24;6.90;99.90
30459;DHT22;74163;50.912;6.918;2024-02-26T02:05:56;6.90;99.90
30459;DHT22;74163;50.912;6.918;2024-02-26T02:06:28;6.90;99.90
30459;DHT22;74163;50.912;6.918;2024-02-26T02:07:01;6.90;99.90
30459;DHT22;74163;50.912;6.918;2024-02-26T02:07:34;6.90;99.90
30459;DHT22;74163;50.912;6.918;2024-02-26T02:08:07;6.90;99.90
30459;DHT22;74163;50.912;6.918;2024-02-26T02:08:39;6.90;99.90
30459;DHT22;74163;50.912;6.918;2024-02-26T02:09:11;6.90;99.90
30459;DHT22;74163;50.912;6.918;2024-02-26T02:09:43;6.90;99.90
30459;DHT22;74163;50.912;6.918;2024-02-26T02:10:15;6.90;99.90
30459;DHT22;74163;50.912;6.918;2024-02-26T02:10:48;6.90;99.90
30459;DHT22;74163;50.912;6.918;2024-02-26T02:11:20;6.90;99.90
30459;DHT22;74163;50.912;6.918;2024-02-26T02:11:52;6.90;99.90
30459;DHT22;74163;50.912;6.918;2024-02-26T02:12:25;6.90;99.90
30459;DHT22;74163;50.912;6.918;2024-02-26T02:12:57;6.90;99.90
30459;DHT22;74163;50.912;6.918;2024-02-26T02:13:29;6.90;99.90
30459;DHT22;74163;50.912;6.918;2024-02-26T02:14:00;6.90;99.90
30459;DHT22;74163;50.912;6.918;2024-02-26T02:14:32;6.90;99.90
30459;DHT22;74163;50.912;6.918;2024-02-26T02:15:05;6.90;99.90
30459;DHT22;74163;50.912;6.918;2024-02-26T02:15:38;7.00;99.90
30459;DHT22;74163;50.912;6.918;2024-02-26T02:16:10;6.90;99.90
30459;DHT22;74163;50.912;6.918;2024-02-26T02:16:42;6.90;99.90
30459;DHT22;74163;50.912;6.918;2024-02-26T02:17:14;7.00;99.90
30459;DHT22;74163;50.912;6.918;2024-02-26T02:17:46;7.00;99.90
30459;DHT22;74163;50.912;6.918;2024-02-26T02:18:19;6.90;99.90
30459;DHT22;74163;50.912;6.918;2024-02-26T02:18:51;7.00;99.90
30459;DHT22;74163;50.912;6.918;2024-02-26T02:19:23;7.00;99.90
30459;DHT22;74163;50.912;6.918;2024-02-26T02:19:55;6.90;99.90
30459;DHT22;74163;50.912;6.918;2024-02-26T02:20:33;7.00;99.90
30459;DHT22;74163;50.912;6.918;2024-02-26T02:21:05;7.00;99.90
30459;DHT22;74163;50.912;6.918;2024-02-26T02:21:37;6.90;99.90
30459;DHT22;74163;50.912;6.918;2024-02-26T02:22:09;7.00;99.90
30459;DHT22;74163;50.912;6.918;2024-02-26T02:22:41;6.90;99.90
30459;DHT22;74163;50.912;6.918;2024-02-26T02:23:13;7.00;99.90
30459;DHT22;74163;50.912;6.918;2024-02-26T02:23:46;7.00;99.90
30459;DHT22;74163;50.912;6.918;2024-02-26T02:24:18;7.00;99.90
30459;DHT22;74163;50.912;6.918;2024-02-26T02:24:52;7.00;99.90
30459;DHT22;74163;50.912;6.918;2024-02-26T02:25:24;7.00;99.90
30459;DHT22;74163;50.912;6.918;2024-02-26T02:25:57;7.10;99.90
30459;DHT22;74163;50.912;6.918;2024-02-26T02:26:30;7.00;99.90
30459;DHT22;74163;50.912;6.918;2024-02-26T02:27:03;7.10;99.90
30459;DHT22;74163;50.912;6.918;2024-02-26T02:27:35;7.00;99.90
30459;DHT22;74163;50.912;6.918;2024-02-26T02:28:09;7.10;99.90
30459;DHT22;74163;50.912;6.918;2024-02-26T02:28:41;7.00;99.90
30459;DHT22;74163;50.912;6.918;2024-02-26T02:29:14;7.10;99.90
30459;DHT22;74163;50.912;6.918;2024-02-26T02:29:47;7.00;99.90
30459;DHT22;74163;50.912;6.918;2024-02-26T02:30:21;7.00;99.90
30459;DHT22;74163;50.912;6.918;2024-02-26T02:30:55;7.00;99.90
30459;DHT22;74163;50.912;6.918;2024-02-26T02:31:28;7.00;99.90
30459;DHT22;74163;50.912;6.918;2024-02-26T02:32:02;7.00;99.90
30459;DHT22;74163;50.912;6.918;2024-02-26T02:32:36;7.00;99.90
30459;DHT22;74163;50.912;6.918;2024-02-26T02:33:09;7.00;99.90
30459;DHT22;74163;50.912;6.918;2024-02-26T02:33:42;7.00;99.90
30459;DHT22;74163;50.912;6.918;2024-02-26T02:34:15;7.00;99.90
30459;DHT22;74163;50.912;6.918;2024-02-26T02:34:47;7.00;99.90
30459;DHT22;74163;50.912;6.918;2024-02-26T02:35:19;7.00;99.90
30459;DHT22;74163;50.912;6.918;2024-02-26T02:35:52;7.00;99.90
30459;DHT22;74163;50.912;6.918;2024-02-26T02:36:24;7.00;99.90
30459;DHT22;74163;50.912;6.918;2024-02-26T02:36:56;7.00;99.90
30459;DHT22;74163;50.912;6.918;2024-02-26T02:37:28;7.00;99.90
30459;DHT22;74163;50.912;6.918;2024-02-26T02:38:00;7.00;99.90
30459;DHT22;74163;50.912;6.918;2024-02-26T02:38:32;7.00;99.90
30459;DHT22;74163;50.912;6.918;2024-02-26T02:39:03;7.00;99.90
30459;DHT22;74163;50.912;6.918;2024-02-26T02:39:35;7.00;99.90
30459;DHT22;74163;50.912;6.918;2024-02-26T02:40:08;7.00;99.90
30459;DHT22;74163;50.912;6.918;2024-02-26T02:40:39;7.00;99.90
30459;DHT22;74163;50.912;6.918;2024-02-26T02:41:12;6.90;99.90
30459;DHT22;74163;50.912;6.918;2024-02-26T02:41:44;7.00;99.90
30459;DHT22;74163;50.912;6.918;2024-02-26T02:42:16;7.00;99.90
30459;DHT22;74163;50.912;6.918;2024-02-26T02:42:48;6.90;99.90
30459;DHT22;74163;50.912;6.918;2024-02-26T02:43:20;6.90;99.90
30459;DHT22;74163;50.912;6.918;2024-02-26T02:43:54;6.90;99.90
30459;DHT22;74163;50.912;6.918;2024-02-26T02:44:26;6.90;99.90
30459;DHT22;74163;50.912;6.918;2024-02-26T02:44:58;6.90;99.90
30459;DHT22;74163;50.912;6.918;2024-02-26T02:45:32;7.00;99.90
30459;DHT22;74163;50.912;6.918;2024-02-26T02:46:04;7.00;99.90
30459;DHT22;74163;50.912;6.918;2024-02-26T02:46:36;7.00;99.90
30459;DHT22;74163;50.912;6.918;2024-02-26T02:47:07;7.00;99.90
30459;DHT22;74163;50.912;6.918;2024-02-26T02:47:39;7.00;99.90
30459;DHT22;74163;50.912;6.918;2024-02-26T02:48:11;7.00;99.90
30459;DHT22;74163;50.912;6.918;2024-02-26T02:48:43;7.00;99.90
30459;DHT22;74163;50.912;6.918;2024-02-26T02:49:15;7.00;99.90
30459;DHT22;74163;50.912;6.918;2024-02-26T02:49:48;7.00;99.90
30459;DHT22;74163;50.912;6.918;2024-02-26T02:50:19;7.00;99.90
30459;DHT22;74163;50.912;6.918;2024-02-26T02:50:53;7.00;99.90
30459;DHT22;74163;50.912;6.918;2024-02-26T02:51:24;7.00;99.90
30459;DHT22;74163;50.912;6.918;2024-02-26T02:51:56;7.00;99.90
30459;DHT22;74163;50.912;6.918;2024-02-26T02:52:28;6.90;99.90
30459;DHT22;74163;50.912;6.918;2024-02-26T02:53:00;6.90;99.90
30459;DHT22;74163;50.912;6.918;2024-02-26T02:53:32;6.90;99.90
30459;DHT22;74163;50.912;6.918;2024-02-26T02:54:04;6.90;99.90
30459;DHT22;74163;50.912;6.918;2024-02-26T02:54:36;7.00;99.90
30459;DHT22;74163;50.912;6.918;2024-02-26T02:55:08;6.90;99.90
30459;DHT22;74163;50.912;6.918;2024-02-26T02:55:40;7.00;99.90
30459;DHT22;74163;50.912;6.918;2024-02-26T02:56:11;6.90;99.90
30459;DHT22;74163;50.912;6.918;2024-02-26T02:56:43;6.90;99.90
30459;DHT22;74163;50.912;6.918;2024-02-26T02:57:15;6.90;99.90
30459;DHT22;74163;50.912;6.918;2024-02-26T02:57:47;6.90;99.90
30459;DHT22;74163;50.912;6.918;2024-02-26T02:58:19;6.90;99.90
30459;DHT22;74163;50.912;6.918;2024-02-26T02:58:51;6.90;99.90
30459;DHT22;74163;50.912;6.918;2024-02-26T02:59:22;6.90;99.90
30459;DHT22;74163;50.912;6.918;2024-02-26T02:59:55;6.90;99.90
30459;DHT22;74163;50.912;6.918;2024-02-26T03:00:27;6.90;99.90
30459;DHT22;74163;50.912;6.918;2024-02-26T03:00:59;6.90;99.90
30459;DHT22;74163;50.912;6.918;2024-02-26T03:01:31;6.90;99.90
30459;DHT22;74163;50.912;6.918;2024-02-26T03:02:03;6.90;99.90
30459;DHT22;74163;50.912;6.918;2024-02-26T03:02:35;6.90;99.90
30459;DHT22;74163;50.912;6.918;2024-02-26T03:03:07;6.90;99.90
30459;DHT22;74163;50.912;6.918;2024-02-26T03:03:39;6.90;99.90
30459;DHT22;74163;50.912;6.918;2024-02-26T03:04:10;6.90;99.90
30459;DHT22;74163;50.912;6.918;2024-02-26T03:04:42;7.00;99.90
30459;DHT22;74163;50.912;6.918;2024-02-26T03:05:14;6.90;99.90
30459;DHT22;74163;50.912;6.918;2024-02-26T03:05:46;6.90;99.90
30459;DHT22;74163;50.912;6.918;2024-02-26T03:06:20;6.90;99.90
30459;DHT22;74163;50.912;6.918;2024-02-26T03:06:52;6.80;99.90
30459;DHT22;74163;50.912;6.918;2024-02-26T03:07:24;6.90;99.90
30459;DHT22;74163;50.912;6.918;2024-02-26T03:07:56;6.90;99.90
30459;DHT22;74163;50.912;6.918;2024-02-26T03:08:28;6.90;99.90
30459;DHT22;74163;50.912;6.918;2024-02-26T03:09:00;6.90;99.90
30459;DHT22;74163;50.912;6.918;2024-02-26T03:09:32;6.90;99.90
30459;DHT22;74163;50.912;6.918;2024-02-26T03:10:04;6.90;99.90
30459;DHT22;74163;50.912;6.918;2024-02-26T03:10:36;6.90;99.90
30459;DHT22;74163;50.912;6.918;2024-02-26T03:11:13;6.90;99.90
30459;DHT22;74163;50.912;6.918;2024-02-26T03:11:44;6.90;99.90
30459;DHT22;74163;50.912;6.918;2024-02-26T03:12:17;6.90;99.90
30459;DHT22;74163;50.912;6.918;2024-02-26T03:12:49;6.90;99.90
30459;DHT22;74163;50.912;6.918;2024-02-26T03:13:21;6.90;99.90
30459;DHT22;74163;50.912;6.918;2024-02-26T03:13:53;6.90;99.90
30459;DHT22;74163;50.912;6.918;2024-02-26T03:14:25;6.90;99.90
30459;DHT22;74163;50.912;6.918;2024-02-26T03:14:57;6.90;99.90
30459;DHT22;74163;50.912;6.918;2024-02-26T03:15:29;6.90;99.90
30459;DHT22;74163;50.912;6.918;2024-02-26T03:16:04;6.90;99.90
30459;DHT22;74163;50.912;6.918;2024-02-26T03:16:36;6.90;99.90
30459;DHT22;74163;50.912;6.918;2024-02-26T03:17:08;6.90;99.90
30459;DHT22;74163;50.912;6.918;2024-02-26T03:17:40;6.90;99.90
30459;DHT22;74163;50.912;6.918;2024-02-26T03:18:12;6.90;99.90
30459;DHT22;74163;50.912;6.918;2024-02-26T03:18:44;6.90;99.90
30459;DHT22;74163;50.912;6.918;2024-02-26T03:19:16;6.90;99.90
30459;DHT22;74163;50.912;6.918;2024-02-26T03:19:48;6.90;99.90
30459;DHT22;74163;50.912;6.918;2024-02-26T03:20:20;6.90;99.90
30459;DHT22;74163;50.912;6.918;2024-02-26T03:20:52;7.00;99.90
30459;DHT22;74163;50.912;6.918;2024-02-26T03:21:26;6.90;99.90
30459;DHT22;74163;50.912;6.918;2024-02-26T03:21:58;6.90;99.90
30459;DHT22;74163;50.912;6.918;2024-02-26T03:22:30;6.80;99.90
30459;DHT22;74163;50.912;6.918;2024-02-26T03:23:02;6.80;99.90
30459;DHT22;74163;50.912;6.918;2024-02-26T03:23:34;6.80;99.90
30459;DHT22;74163;50.912;6.918;2024-02-26T03:24:07;6.80;99.90
30459;DHT22;74163;50.912;6.918;2024-02-26T03:24:39;6.80;99.90
30459;DHT22;74163;50.912;6.918;2024-02-26T03:25:12;6.80;99.90
30459;DHT22;74163;50.912;6.918;2024-02-26T03:25:45;6.80;99.90
30459;DHT22;74163;50.912;6.918;2024-02-26T03:26:18;6.80;99.90